PWSweather.com
Personal Weather Stations
Station Observations
WATERF01
WaterfordIE

WaterfordIE

Lat: 52.2412507, Lon: -7.1414691

Elevation: 65

Station Type: Davis Vantage Vue

www.waterfordweather.com

High Low Average
Temperature 40.9°F4.9°C 29.2°F-1.6°C 35.3°F1.8°C
Dew Point 38.2°F3.4°C 26.9°F-2.8°C 33.2°F0.7°C
Winds 13.8 mph 22.2 kmh Calm Calm 8.0 mph NW12.9 kmh NW
Wind Gusts 21.9 mph35.2 kmh -- 13.0 mph20.9 kmh
Humidity 95% 89% 92%
Pressure 29.68 in1005.1 mb 29.09 in985.1 mb -
Precipitation 0.00 in0.0 mm - -
Hour Temp Dew Point Humidity Winds Wind Gusts Pressure Precip Precip Rate Daily Precip Total
12:00 AM 31.9°F-0.1°C 29.0°F-1.7°C 89% 6.9 mph NW11.1 kmh NW 13.8 mph22.2 kmh 29.09 in985.1 mb - 0.00 in0.0 mm 0.00 in0.0 mm
12:10 AM 31.6°F-0.2°C 28.8°F-1.8°C 89% 6.9 mph NW11.1 kmh NW 8.1 mph13.0 kmh 29.10 in985.4 mb - 0.00 in0.0 mm 0.00 in0.0 mm
12:20 AM 31.6°F-0.2°C 28.7°F-1.8°C 89% 9.2 mph NW14.8 kmh NW 16.1 mph25.9 kmh 29.10 in985.4 mb - 0.00 in0.0 mm 0.00 in0.0 mm
12:30 AM 31.5°F-0.3°C 28.6°F-1.9°C 89% 6.9 mph NW11.1 kmh NW 11.5 mph18.5 kmh 29.11 in985.8 mb - 0.00 in0.0 mm 0.00 in0.0 mm
12:40 AM 31.2°F-0.4°C 28.6°F-1.9°C 90% 10.4 mph NW16.7 kmh NW 13.8 mph22.2 kmh 29.11 in985.8 mb - 0.00 in0.0 mm 0.00 in0.0 mm
12:50 AM 30.7°F-0.7°C 28.2°F-2.1°C 90% 8.1 mph NW13.0 kmh NW 13.8 mph22.2 kmh 29.11 in985.8 mb - 0.00 in0.0 mm 0.00 in0.0 mm
01:00 AM 30.5°F-0.8°C 28.2°F-2.1°C 91% 6.9 mph NW11.1 kmh NW 9.2 mph14.8 kmh 29.11 in985.8 mb - 0.00 in0.0 mm 0.00 in0.0 mm
01:10 AM 30.4°F-0.9°C 28.1°F-2.2°C 91% 9.2 mph NNW14.8 kmh NNW 15.0 mph24.1 kmh 29.11 in985.8 mb - 0.00 in0.0 mm 0.00 in0.0 mm
01:20 AM 30.4°F-0.9°C 28.1°F-2.2°C 91% 10.4 mph NNW16.7 kmh NNW 13.8 mph22.2 kmh 29.12 in986.1 mb - 0.00 in0.0 mm 0.00 in0.0 mm
01:30 AM 30.3°F-0.9°C 28.0°F-2.2°C 91% 6.9 mph NNW11.1 kmh NNW 11.5 mph18.5 kmh 29.13 in986.5 mb - 0.00 in0.0 mm 0.00 in0.0 mm
01:40 AM 30.2°F-1.0°C 27.9°F-2.3°C 91% 8.1 mph NW13.0 kmh NW 16.1 mph25.9 kmh 29.13 in986.5 mb - 0.00 in0.0 mm 0.00 in0.0 mm
01:50 AM 30.1°F-1.1°C 27.8°F-2.3°C 91% 6.9 mph NNW11.1 kmh NNW 12.7 mph20.4 kmh 29.14 in986.8 mb - 0.00 in0.0 mm 0.00 in0.0 mm
02:00 AM 30.1°F-1.1°C 27.8°F-2.3°C 91% 5.8 mph NW9.3 kmh NW 9.2 mph14.8 kmh 29.15 in987.1 mb - 0.00 in0.0 mm 0.00 in0.0 mm
02:10 AM 30.0°F-1.1°C 27.7°F-2.4°C 91% 5.8 mph NNW9.3 kmh NNW 8.1 mph13.0 kmh 29.16 in987.5 mb - 0.00 in0.0 mm 0.00 in0.0 mm
02:20 AM 29.8°F-1.2°C 27.5°F-2.5°C 91% 5.8 mph NNW9.3 kmh NNW 12.7 mph20.4 kmh 29.16 in987.5 mb - 0.00 in0.0 mm 0.00 in0.0 mm
02:30 AM 29.6°F-1.3°C 27.3°F-2.6°C 91% 8.1 mph NW13.0 kmh NW 11.5 mph18.5 kmh 29.16 in987.5 mb - 0.00 in0.0 mm 0.00 in0.0 mm
02:40 AM 29.5°F-1.4°C 27.2°F-2.7°C 91% 6.9 mph NNW11.1 kmh NNW 11.5 mph18.5 kmh 29.16 in987.5 mb - 0.00 in0.0 mm 0.00 in0.0 mm
02:50 AM 29.3°F-1.5°C 27.0°F-2.8°C 91% 4.6 mph NW7.4 kmh NW 8.1 mph13.0 kmh 29.16 in987.5 mb - 0.00 in0.0 mm 0.00 in0.0 mm
03:00 AM 29.2°F-1.6°C 26.9°F-2.8°C 91% 4.6 mph NNW7.4 kmh NNW 6.9 mph11.1 kmh 29.17 in987.8 mb - 0.00 in0.0 mm 0.00 in0.0 mm
03:10 AM 29.3°F-1.5°C 27.0°F-2.8°C 91% 6.9 mph NW11.1 kmh NW 11.5 mph18.5 kmh 29.17 in987.8 mb - 0.00 in0.0 mm 0.00 in0.0 mm
03:20 AM 29.6°F-1.3°C 27.3°F-2.6°C 91% 9.2 mph NNW14.8 kmh NNW 11.5 mph18.5 kmh 29.16 in987.5 mb - 0.00 in0.0 mm 0.00 in0.0 mm
03:30 AM 29.7°F-1.3°C 27.4°F-2.6°C 91% 9.2 mph NNW14.8 kmh NNW 19.6 mph31.5 kmh 29.16 in987.5 mb - 0.00 in0.0 mm 0.00 in0.0 mm
03:40 AM 29.6°F-1.3°C 27.3°F-2.6°C 91% 8.1 mph NNW13.0 kmh NNW 13.8 mph22.2 kmh 29.16 in987.5 mb - 0.00 in0.0 mm 0.00 in0.0 mm
03:50 AM 29.5°F-1.4°C 27.2°F-2.7°C 91% 8.1 mph NW13.0 kmh NW 11.5 mph18.5 kmh 29.16 in987.5 mb - 0.00 in0.0 mm 0.00 in0.0 mm
04:00 AM 29.5°F-1.4°C 27.2°F-2.7°C 91% 6.9 mph NW11.1 kmh NW 8.1 mph13.0 kmh 29.17 in987.8 mb - 0.00 in0.0 mm 0.00 in0.0 mm
04:10 AM 29.5°F-1.4°C 27.2°F-2.7°C 91% 6.9 mph NNW11.1 kmh NNW 13.8 mph22.2 kmh 29.17 in987.8 mb - 0.00 in0.0 mm 0.00 in0.0 mm
04:20 AM 29.5°F-1.4°C 27.2°F-2.7°C 91% 6.9 mph NNW11.1 kmh NNW 11.5 mph18.5 kmh 29.17 in987.8 mb - 0.00 in0.0 mm 0.00 in0.0 mm
04:30 AM 29.5°F-1.4°C 27.2°F-2.7°C 91% 3.5 mph NW5.6 kmh NW 6.9 mph11.1 kmh 29.18 in988.1 mb - 0.00 in0.0 mm 0.00 in0.0 mm
04:40 AM 29.4°F-1.4°C 27.1°F-2.7°C 91% 5.8 mph NW9.3 kmh NW 8.1 mph13.0 kmh 29.18 in988.1 mb - 0.00 in0.0 mm 0.00 in0.0 mm
04:50 AM 29.4°F-1.4°C 27.1°F-2.7°C 91% 6.9 mph NW11.1 kmh NW 10.4 mph16.7 kmh 29.19 in988.5 mb - 0.00 in0.0 mm 0.00 in0.0 mm
05:00 AM 29.3°F-1.5°C 27.0°F-2.8°C 91% 5.8 mph NW9.3 kmh NW 6.9 mph11.1 kmh 29.19 in988.5 mb - 0.00 in0.0 mm 0.00 in0.0 mm
05:10 AM 29.4°F-1.4°C 27.1°F-2.7°C 91% 4.6 mph NW7.4 kmh NW 8.1 mph13.0 kmh 29.19 in988.5 mb - 0.00 in0.0 mm 0.00 in0.0 mm
05:20 AM 29.3°F-1.5°C 27.3°F-2.6°C 92% 4.6 mph NW7.4 kmh NW 6.9 mph11.1 kmh 29.19 in988.5 mb - 0.00 in0.0 mm 0.00 in0.0 mm
05:30 AM 29.3°F-1.5°C 27.3°F-2.6°C 92% 8.1 mph NNW13.0 kmh NNW 11.5 mph18.5 kmh 29.20 in988.8 mb - 0.00 in0.0 mm 0.00 in0.0 mm
05:40 AM 29.4°F-1.4°C 27.4°F-2.6°C 92% 8.1 mph NW13.0 kmh NW 11.5 mph18.5 kmh 29.20 in988.8 mb - 0.00 in0.0 mm 0.00 in0.0 mm
05:50 AM 29.7°F-1.3°C 27.7°F-2.4°C 92% 6.9 mph NNW11.1 kmh NNW 11.5 mph18.5 kmh 29.20 in988.8 mb - 0.00 in0.0 mm 0.00 in0.0 mm
06:00 AM 29.5°F-1.4°C 27.7°F-2.4°C 93% 3.5 mph NW5.6 kmh NW 5.8 mph9.3 kmh 29.21 in989.2 mb - 0.00 in0.0 mm 0.00 in0.0 mm
06:10 AM 29.7°F-1.3°C 27.9°F-2.3°C 93% 6.9 mph NNW11.1 kmh NNW 11.5 mph18.5 kmh 29.21 in989.2 mb - 0.00 in0.0 mm 0.00 in0.0 mm
06:20 AM 30.5°F-0.8°C 28.9°F-1.7°C 94% 5.8 mph NNW9.3 kmh NNW 11.5 mph18.5 kmh 29.22 in989.5 mb - 0.00 in0.0 mm 0.00 in0.0 mm
06:30 AM 31.1°F-0.5°C 29.5°F-1.4°C 94% 4.6 mph NNW7.4 kmh NNW 8.1 mph13.0 kmh 29.23 in989.8 mb - 0.00 in0.0 mm 0.00 in0.0 mm
06:40 AM 31.5°F-0.3°C 30.0°F-1.1°C 94% 8.1 mph NW13.0 kmh NW 13.8 mph22.2 kmh 29.23 in989.8 mb - 0.00 in0.0 mm 0.00 in0.0 mm
06:50 AM 31.8°F-0.1°C 30.3°F-0.9°C 94% 8.1 mph NNW13.0 kmh NNW 11.5 mph18.5 kmh 29.23 in989.8 mb - 0.00 in0.0 mm 0.00 in0.0 mm
07:00 AM 31.8°F-0.1°C 30.3°F-0.9°C 94% 8.1 mph NW13.0 kmh NW 11.5 mph18.5 kmh 29.24 in990.2 mb - 0.00 in0.0 mm 0.00 in0.0 mm
07:10 AM 32.0°F0.0°C 30.5°F-0.8°C 94% 9.2 mph NW14.8 kmh NW 13.8 mph22.2 kmh 29.24 in990.2 mb - 0.00 in0.0 mm 0.00 in0.0 mm
07:20 AM 31.9°F-0.1°C 30.4°F-0.9°C 94% 9.2 mph NNW14.8 kmh NNW 16.1 mph25.9 kmh 29.25 in990.5 mb - 0.00 in0.0 mm 0.00 in0.0 mm
07:30 AM 31.9°F-0.1°C 30.3°F-0.9°C 94% 8.1 mph NW13.0 kmh NW 12.7 mph20.4 kmh 29.25 in990.5 mb - 0.00 in0.0 mm 0.00 in0.0 mm
07:40 AM 32.1°F0.1°C 30.8°F-0.7°C 95% 8.1 mph NW13.0 kmh NW 11.5 mph18.5 kmh 29.26 in990.9 mb - 0.00 in0.0 mm 0.00 in0.0 mm
07:50 AM 32.3°F0.2°C 31.0°F-0.6°C 95% 9.2 mph NW14.8 kmh NW 12.7 mph20.4 kmh 29.26 in990.9 mb - 0.00 in0.0 mm 0.00 in0.0 mm
08:00 AM 32.3°F0.2°C 31.0°F-0.6°C 95% 8.1 mph NW13.0 kmh NW 11.5 mph18.5 kmh 29.27 in991.2 mb - 0.00 in0.0 mm 0.00 in0.0 mm
08:10 AM 32.0°F0.0°C 30.7°F-0.7°C 95% 5.8 mph NW9.3 kmh NW 8.1 mph13.0 kmh 29.27 in991.2 mb - 0.00 in0.0 mm 0.00 in0.0 mm
08:20 AM 32.3°F0.2°C 31.0°F-0.6°C 95% 8.1 mph NW13.0 kmh NW 13.8 mph22.2 kmh 29.28 in991.5 mb - 0.00 in0.0 mm 0.00 in0.0 mm
08:30 AM 33.4°F0.8°C 32.1°F0.1°C 95% 6.9 mph NW11.1 kmh NW 11.5 mph18.5 kmh 29.28 in991.5 mb - 0.00 in0.0 mm 0.00 in0.0 mm
08:40 AM 33.6°F0.9°C 32.3°F0.2°C 95% 6.9 mph NW11.1 kmh NW 11.5 mph18.5 kmh 29.29 in991.9 mb - 0.00 in0.0 mm 0.00 in0.0 mm
08:50 AM 34.2°F1.2°C 32.9°F0.5°C 95% 4.6 mph NW7.4 kmh NW 11.5 mph18.5 kmh 29.29 in991.9 mb - 0.00 in0.0 mm 0.00 in0.0 mm
09:00 AM 34.8°F1.6°C 33.5°F0.8°C 95% 8.1 mph NW13.0 kmh NW 13.8 mph22.2 kmh 29.29 in991.9 mb - 0.00 in0.0 mm 0.00 in0.0 mm
09:10 AM 35.3°F1.8°C 33.7°F0.9°C 94% 9.2 mph NW14.8 kmh NW 15.0 mph24.1 kmh 29.29 in991.9 mb - 0.00 in0.0 mm 0.00 in0.0 mm
09:20 AM 35.7°F2.1°C 34.1°F1.2°C 94% 9.2 mph NW14.8 kmh NW 12.7 mph20.4 kmh 29.30 in992.2 mb - 0.00 in0.0 mm 0.00 in0.0 mm
09:30 AM 35.7°F2.1°C 34.1°F1.2°C 94% 10.4 mph NW16.7 kmh NW 16.1 mph25.9 kmh 29.30 in992.2 mb - 0.00 in0.0 mm 0.00 in0.0 mm
09:40 AM 35.6°F2.0°C 34.0°F1.1°C 94% 8.1 mph NW13.0 kmh NW 11.5 mph18.5 kmh 29.31 in992.6 mb - 0.00 in0.0 mm 0.00 in0.0 mm
09:50 AM 35.3°F1.8°C 33.7°F0.9°C 94% 8.1 mph NW13.0 kmh NW 13.8 mph22.2 kmh 29.32 in992.9 mb - 0.00 in0.0 mm 0.00 in0.0 mm
10:00 AM 35.3°F1.8°C 33.7°F0.9°C 94% 6.9 mph NW11.1 kmh NW 13.8 mph22.2 kmh 29.33 in993.2 mb - 0.00 in0.0 mm 0.00 in0.0 mm
10:10 AM 35.6°F2.0°C 34.1°F1.2°C 94% 8.1 mph NW13.0 kmh NW 11.5 mph18.5 kmh 29.33 in993.2 mb - 0.00 in0.0 mm 0.00 in0.0 mm
10:20 AM 36.0°F2.2°C 34.4°F1.3°C 94% 10.4 mph NW16.7 kmh NW 15.0 mph24.1 kmh 29.34 in993.6 mb - 0.00 in0.0 mm 0.00 in0.0 mm
10:30 AM 36.2°F2.3°C 34.6°F1.4°C 94% 9.2 mph NW14.8 kmh NW 12.7 mph20.4 kmh 29.35 in993.9 mb - 0.00 in0.0 mm 0.00 in0.0 mm
10:40 AM 36.5°F2.5°C 35.0°F1.7°C 94% 9.2 mph NW14.8 kmh NW 13.8 mph22.2 kmh 29.35 in993.9 mb - 0.00 in0.0 mm 0.00 in0.0 mm
10:50 AM 36.9°F2.7°C 35.3°F1.8°C 94% 9.2 mph NW14.8 kmh NW 15.0 mph24.1 kmh 29.36 in994.2 mb - 0.00 in0.0 mm 0.00 in0.0 mm
11:00 AM 37.3°F2.9°C 35.7°F2.1°C 94% 8.1 mph NW13.0 kmh NW 12.7 mph20.4 kmh 29.36 in994.2 mb - 0.00 in0.0 mm 0.00 in0.0 mm
11:10 AM 37.6°F3.1°C 36.0°F2.2°C 94% 9.2 mph NW14.8 kmh NW 11.5 mph18.5 kmh 29.36 in994.2 mb - 0.00 in0.0 mm 0.00 in0.0 mm
11:20 AM 38.0°F3.3°C 36.2°F2.3°C 93% 8.1 mph NW13.0 kmh NW 13.8 mph22.2 kmh 29.36 in994.2 mb - 0.00 in0.0 mm 0.00 in0.0 mm
11:30 AM 38.2°F3.4°C 36.4°F2.4°C 93% 8.1 mph NW13.0 kmh NW 13.8 mph22.2 kmh 29.36 in994.2 mb - 0.00 in0.0 mm 0.00 in0.0 mm
11:40 AM 38.5°F3.6°C 36.7°F2.6°C 93% 9.2 mph NW14.8 kmh NW 15.0 mph24.1 kmh 29.36 in994.2 mb - 0.00 in0.0 mm 0.00 in0.0 mm
11:50 AM 38.7°F3.7°C 36.6°F2.6°C 92% 9.2 mph NW14.8 kmh NW 16.1 mph25.9 kmh 29.37 in994.6 mb - 0.00 in0.0 mm 0.00 in0.0 mm
12:00 PM 38.9°F3.8°C 36.8°F2.7°C 92% 9.2 mph NW14.8 kmh NW 11.5 mph18.5 kmh 29.37 in994.6 mb - 0.00 in0.0 mm 0.00 in0.0 mm
12:10 PM 39.2°F4.0°C 37.1°F2.8°C 92% 9.2 mph NW14.8 kmh NW 15.0 mph24.1 kmh 29.37 in994.6 mb - 0.00 in0.0 mm 0.00 in0.0 mm
12:20 PM 39.3°F4.1°C 37.2°F2.9°C 92% 9.2 mph NW14.8 kmh NW 15.0 mph24.1 kmh 29.38 in994.9 mb - 0.00 in0.0 mm 0.00 in0.0 mm
12:30 PM 39.6°F4.2°C 37.4°F3.0°C 92% 9.2 mph NW14.8 kmh NW 13.8 mph22.2 kmh 29.38 in994.9 mb - 0.00 in0.0 mm 0.00 in0.0 mm
12:40 PM 39.9°F4.4°C 37.5°F3.1°C 91% 9.2 mph NW14.8 kmh NW 15.0 mph24.1 kmh 29.39 in995.3 mb - 0.00 in0.0 mm 0.00 in0.0 mm
12:50 PM 40.0°F4.4°C 37.6°F3.1°C 91% 10.4 mph NW16.7 kmh NW 16.1 mph25.9 kmh 29.39 in995.3 mb - 0.00 in0.0 mm 0.00 in0.0 mm
01:00 PM 40.3°F4.6°C 37.9°F3.3°C 91% 10.4 mph NW16.7 kmh NW 12.7 mph20.4 kmh 29.39 in995.3 mb - 0.00 in0.0 mm 0.00 in0.0 mm
01:10 PM 39.9°F4.4°C 37.5°F3.1°C 91% 9.2 mph NW14.8 kmh NW 13.8 mph22.2 kmh 29.40 in995.6 mb - 0.00 in0.0 mm 0.00 in0.0 mm
01:20 PM 40.1°F4.5°C 38.0°F3.3°C 92% 8.1 mph NW13.0 kmh NW 11.5 mph18.5 kmh 29.40 in995.6 mb - 0.00 in0.0 mm 0.00 in0.0 mm
01:30 PM 40.1°F4.5°C 37.7°F3.2°C 91% 9.2 mph NW14.8 kmh NW 13.8 mph22.2 kmh 29.41 in995.9 mb - 0.00 in0.0 mm 0.00 in0.0 mm
01:40 PM 40.1°F4.5°C 37.7°F3.2°C 91% 5.8 mph NW9.3 kmh NW 9.2 mph14.8 kmh 29.41 in995.9 mb - 0.00 in0.0 mm 0.00 in0.0 mm
01:50 PM 40.3°F4.6°C 37.9°F3.3°C 91% 8.1 mph NW13.0 kmh NW 16.1 mph25.9 kmh 29.41 in995.9 mb - 0.00 in0.0 mm 0.00 in0.0 mm
02:00 PM 40.6°F4.8°C 38.2°F3.4°C 91% 9.2 mph NW14.8 kmh NW 13.8 mph22.2 kmh 29.41 in995.9 mb - 0.00 in0.0 mm 0.00 in0.0 mm
02:10 PM 40.8°F4.9°C 38.1°F3.4°C 90% 11.5 mph NW18.5 kmh NW 17.3 mph27.8 kmh 29.41 in995.9 mb - 0.00 in0.0 mm 0.00 in0.0 mm
02:20 PM 40.8°F4.9°C 38.1°F3.4°C 90% 9.2 mph NW14.8 kmh NW 13.8 mph22.2 kmh 29.41 in995.9 mb - 0.00 in0.0 mm 0.00 in0.0 mm
02:30 PM 40.9°F4.9°C 38.2°F3.4°C 90% 11.5 mph NW18.5 kmh NW 16.1 mph25.9 kmh 29.42 in996.3 mb - 0.00 in0.0 mm 0.00 in0.0 mm
02:40 PM 40.7°F4.8°C 38.0°F3.3°C 90% 9.2 mph NW14.8 kmh NW 16.1 mph25.9 kmh 29.42 in996.3 mb - 0.00 in0.0 mm 0.00 in0.0 mm
02:50 PM 40.7°F4.8°C 38.0°F3.3°C 90% 5.8 mph NW9.3 kmh NW 8.1 mph13.0 kmh 29.43 in996.6 mb - 0.00 in0.0 mm 0.00 in0.0 mm
03:00 PM 40.7°F4.8°C 38.0°F3.3°C 90% 8.1 mph NNW13.0 kmh NNW 13.8 mph22.2 kmh 29.43 in996.6 mb - 0.00 in0.0 mm 0.00 in0.0 mm
03:10 PM 40.7°F4.8°C 38.0°F3.3°C 90% 5.8 mph NW9.3 kmh NW 11.5 mph18.5 kmh 29.43 in996.6 mb - 0.00 in0.0 mm 0.00 in0.0 mm
03:20 PM 40.6°F4.8°C 37.6°F3.1°C 89% 8.1 mph NW13.0 kmh NW 12.7 mph20.4 kmh 29.44 in997.0 mb - 0.00 in0.0 mm 0.00 in0.0 mm
03:30 PM 40.3°F4.6°C 37.3°F2.9°C 89% 8.1 mph NNW13.0 kmh NNW 15.0 mph24.1 kmh 29.44 in997.0 mb - 0.00 in0.0 mm 0.00 in0.0 mm
03:40 PM 40.1°F4.5°C 37.1°F2.8°C 89% 8.1 mph NW13.0 kmh NW 12.7 mph20.4 kmh 29.45 in997.3 mb - 0.00 in0.0 mm 0.00 in0.0 mm
03:50 PM 40.0°F4.4°C 37.0°F2.8°C 89% 9.2 mph NW14.8 kmh NW 16.1 mph25.9 kmh 29.45 in997.3 mb - 0.00 in0.0 mm 0.00 in0.0 mm
04:00 PM 39.8°F4.3°C 37.1°F2.8°C 90% 9.2 mph NW14.8 kmh NW 13.8 mph22.2 kmh 29.45 in997.3 mb - 0.00 in0.0 mm 0.00 in0.0 mm
04:10 PM 39.7°F4.3°C 37.0°F2.8°C 90% 11.5 mph NW18.5 kmh NW 16.1 mph25.9 kmh 29.45 in997.3 mb - 0.00 in0.0 mm 0.00 in0.0 mm
04:20 PM 39.7°F4.3°C 37.0°F2.8°C 90% 13.8 mph NW22.2 kmh NW 16.1 mph25.9 kmh 29.46 in997.6 mb - 0.00 in0.0 mm 0.00 in0.0 mm
04:30 PM 39.5°F4.2°C 36.8°F2.7°C 90% 12.7 mph NW20.4 kmh NW 16.1 mph25.9 kmh 29.47 in998.0 mb - 0.00 in0.0 mm 0.00 in0.0 mm
04:40 PM 39.3°F4.1°C 36.6°F2.6°C 90% 10.4 mph NW16.7 kmh NW 15.0 mph24.1 kmh 29.48 in998.3 mb - 0.00 in0.0 mm 0.00 in0.0 mm
04:50 PM 39.0°F3.9°C 36.3°F2.4°C 90% 9.2 mph NW14.8 kmh NW 16.1 mph25.9 kmh 29.48 in998.3 mb - 0.00 in0.0 mm 0.00 in0.0 mm
05:00 PM 38.9°F3.8°C 36.2°F2.3°C 90% 11.5 mph NW18.5 kmh NW 13.8 mph22.2 kmh 29.48 in998.3 mb - 0.00 in0.0 mm 0.00 in0.0 mm
05:10 PM 38.7°F3.7°C 36.0°F2.2°C 90% 6.9 mph NW11.1 kmh NW 11.5 mph18.5 kmh 29.48 in998.3 mb - 0.00 in0.0 mm 0.00 in0.0 mm
05:20 PM 38.5°F3.6°C 35.8°F2.1°C 90% 11.5 mph NNW18.5 kmh NNW 13.8 mph22.2 kmh 29.49 in998.6 mb - 0.00 in0.0 mm 0.00 in0.0 mm
05:30 PM 38.4°F3.6°C 35.8°F2.1°C 90% 10.4 mph NW16.7 kmh NW 18.4 mph29.6 kmh 29.49 in998.6 mb - 0.00 in0.0 mm 0.00 in0.0 mm
05:40 PM 38.5°F3.6°C 35.8°F2.1°C 90% 9.2 mph NW14.8 kmh NW 13.8 mph22.2 kmh 29.50 in999.0 mb - 0.00 in0.0 mm 0.00 in0.0 mm
05:50 PM 38.4°F3.6°C 35.7°F2.1°C 90% 11.5 mph NW18.5 kmh NW 19.6 mph31.5 kmh 29.51 in999.3 mb - 0.00 in0.0 mm 0.00 in0.0 mm
06:00 PM 38.4°F3.6°C 35.7°F2.1°C 90% 13.8 mph NW22.2 kmh NW 16.1 mph25.9 kmh 29.52 in999.7 mb - 0.00 in0.0 mm 0.00 in0.0 mm
06:10 PM 38.3°F3.5°C 35.9°F2.2°C 91% 12.7 mph NW20.4 kmh NW 20.7 mph33.3 kmh 29.52 in999.7 mb - 0.00 in0.0 mm 0.00 in0.0 mm
06:20 PM 38.3°F3.5°C 35.9°F2.2°C 91% 12.7 mph NW20.4 kmh NW 19.6 mph31.5 kmh 29.52 in999.7 mb - 0.00 in0.0 mm 0.00 in0.0 mm
06:30 PM 38.2°F3.4°C 35.8°F2.1°C 91% 11.5 mph NW18.5 kmh NW 16.1 mph25.9 kmh 29.53 in1000.0 mb - 0.00 in0.0 mm 0.00 in0.0 mm
06:40 PM 38.1°F3.4°C 35.7°F2.1°C 91% 13.8 mph NW22.2 kmh NW 21.9 mph35.2 kmh 29.54 in1000.3 mb - 0.00 in0.0 mm 0.00 in0.0 mm
06:50 PM 37.9°F3.3°C 35.5°F1.9°C 91% 12.7 mph NW20.4 kmh NW 19.6 mph31.5 kmh 29.54 in1000.3 mb - 0.00 in0.0 mm 0.00 in0.0 mm
07:00 PM 38.0°F3.3°C 35.6°F2.0°C 91% 11.5 mph NW18.5 kmh NW 20.7 mph33.3 kmh 29.56 in1001.0 mb - 0.00 in0.0 mm 0.00 in0.0 mm
07:10 PM 38.3°F3.5°C 35.9°F2.2°C 91% 12.7 mph NW20.4 kmh NW 21.9 mph35.2 kmh 29.58 in1001.7 mb - 0.00 in0.0 mm 0.00 in0.0 mm
07:20 PM 38.3°F3.5°C 35.9°F2.2°C 91% 10.4 mph NW16.7 kmh NW 16.1 mph25.9 kmh 29.59 in1002.0 mb - 0.00 in0.0 mm 0.00 in0.0 mm
07:30 PM 38.2°F3.4°C 35.8°F2.1°C 91% 10.4 mph NW16.7 kmh NW 16.1 mph25.9 kmh 29.60 in1002.4 mb - 0.00 in0.0 mm 0.00 in0.0 mm
07:40 PM 38.0°F3.3°C 35.6°F2.0°C 91% 11.5 mph NW18.5 kmh NW 18.4 mph29.6 kmh 29.61 in1002.7 mb - 0.00 in0.0 mm 0.00 in0.0 mm
07:50 PM 38.0°F3.3°C 35.6°F2.0°C 91% 11.5 mph NW18.5 kmh NW 19.6 mph31.5 kmh 29.61 in1002.7 mb - 0.00 in0.0 mm 0.00 in0.0 mm
08:00 PM 37.8°F3.2°C 35.4°F1.9°C 91% 11.5 mph NW18.5 kmh NW 13.8 mph22.2 kmh 29.60 in1002.4 mb - 0.00 in0.0 mm 0.00 in0.0 mm
08:10 PM 37.6°F3.1°C 35.5°F1.9°C 92% 8.1 mph NW13.0 kmh NW 12.7 mph20.4 kmh 29.61 in1002.7 mb - 0.00 in0.0 mm 0.00 in0.0 mm
08:20 PM 37.4°F3.0°C 35.3°F1.8°C 92% 5.8 mph NW9.3 kmh NW 9.2 mph14.8 kmh 29.61 in1002.7 mb - 0.00 in0.0 mm 0.00 in0.0 mm
08:30 PM 37.5°F3.1°C 35.4°F1.9°C 92% 6.9 mph NNW11.1 kmh NNW 11.5 mph18.5 kmh 29.62 in1003.0 mb - 0.00 in0.0 mm 0.00 in0.0 mm
08:40 PM 37.5°F3.1°C 35.4°F1.9°C 92% 8.1 mph NW13.0 kmh NW 11.5 mph18.5 kmh 29.62 in1003.0 mb - 0.00 in0.0 mm 0.00 in0.0 mm
08:50 PM 37.4°F3.0°C 35.3°F1.8°C 92% 8.1 mph NW13.0 kmh NW 11.5 mph18.5 kmh 29.62 in1003.0 mb - 0.00 in0.0 mm 0.00 in0.0 mm
09:00 PM 37.2°F2.9°C 35.1°F1.7°C 92% 5.8 mph NW9.3 kmh NW 9.2 mph14.8 kmh 29.62 in1003.0 mb - 0.00 in0.0 mm 0.00 in0.0 mm
09:10 PM 37.1°F2.8°C 35.0°F1.7°C 92% 5.8 mph NW9.3 kmh NW 11.5 mph18.5 kmh 29.62 in1003.0 mb - 0.00 in0.0 mm 0.00 in0.0 mm
09:20 PM 37.0°F2.8°C 34.9°F1.6°C 92% 8.1 mph NW13.0 kmh NW 11.5 mph18.5 kmh 29.62 in1003.0 mb - 0.00 in0.0 mm 0.00 in0.0 mm
09:30 PM 36.9°F2.7°C 35.1°F1.7°C 93% 6.9 mph NW11.1 kmh NW 9.2 mph14.8 kmh 29.62 in1003.0 mb - 0.00 in0.0 mm 0.00 in0.0 mm
09:40 PM 36.8°F2.7°C 35.0°F1.7°C 93% 6.9 mph NW11.1 kmh NW 10.4 mph16.7 kmh 29.62 in1003.0 mb - 0.00 in0.0 mm 0.00 in0.0 mm
09:50 PM 36.7°F2.6°C 34.6°F1.4°C 92% 6.9 mph NW11.1 kmh NW 9.2 mph14.8 kmh 29.63 in1003.4 mb - 0.00 in0.0 mm 0.00 in0.0 mm
10:00 PM 36.5°F2.5°C 34.7°F1.5°C 93% 3.5 mph NW5.6 kmh NW 5.8 mph9.3 kmh 29.63 in1003.4 mb - 0.00 in0.0 mm 0.00 in0.0 mm
10:10 PM 36.2°F2.3°C 34.4°F1.3°C 93% 1.2 mph NNW1.9 kmh NNW 2.3 mph3.7 kmh 29.63 in1003.4 mb - 0.00 in0.0 mm 0.00 in0.0 mm
10:20 PM 36.2°F2.3°C 34.4°F1.3°C 93% 3.5 mph NNW5.6 kmh NNW 8.1 mph13.0 kmh 29.63 in1003.4 mb - 0.00 in0.0 mm 0.00 in0.0 mm
10:30 PM 36.6°F2.6°C 34.8°F1.6°C 93% 6.9 mph NW11.1 kmh NW 11.5 mph18.5 kmh 29.64 in1003.7 mb - 0.00 in0.0 mm 0.00 in0.0 mm
10:40 PM 36.6°F2.6°C 34.8°F1.6°C 93% 4.6 mph NW7.4 kmh NW 5.8 mph9.3 kmh 29.65 in1004.1 mb - 0.00 in0.0 mm 0.00 in0.0 mm
10:50 PM 36.2°F2.3°C 34.4°F1.3°C 93% 1.2 mph NW1.9 kmh NW 2.3 mph3.7 kmh 29.66 in1004.4 mb - 0.00 in0.0 mm 0.00 in0.0 mm
11:00 PM 35.7°F2.1°C 33.9°F1.1°C 93% Calm Calm -- 29.67 in1004.7 mb - 0.00 in0.0 mm 0.00 in0.0 mm
11:10 PM 35.6°F2.0°C 34.1°F1.2°C 94% 2.3 mph NW3.7 kmh NW 4.6 mph7.4 kmh 29.67 in1004.7 mb - 0.00 in0.0 mm 0.00 in0.0 mm
11:20 PM 36.3°F2.4°C 34.7°F1.5°C 94% 4.6 mph WNW7.4 kmh WNW 5.8 mph9.3 kmh 29.67 in1004.7 mb - 0.00 in0.0 mm 0.00 in0.0 mm
11:30 PM 36.5°F2.5°C 34.7°F1.5°C 93% 4.6 mph NW7.4 kmh NW 8.1 mph13.0 kmh 29.67 in1004.7 mb - 0.00 in0.0 mm 0.00 in0.0 mm
11:40 PM 36.2°F2.3°C 34.4°F1.3°C 93% 1.2 mph NW1.9 kmh NW 6.9 mph11.1 kmh 29.68 in1005.1 mb - 0.00 in0.0 mm 0.00 in0.0 mm
11:50 PM 36.0°F2.2°C 34.2°F1.2°C 93% 3.5 mph NNW5.6 kmh NNW 5.8 mph9.3 kmh 29.68 in1005.1 mb - 0.00 in0.0 mm 0.00 in0.0 mm